createdAt,value
2022-08-14T00:01:00.024Z,16.83
2022-08-14T00:02:33.278Z,16.43
2022-08-14T00:04:35.033Z,16.70
2022-08-14T00:06:14.125Z,15.77
2022-08-14T00:07:58.740Z,16.17
2022-08-14T00:09:32.963Z,16.10
2022-08-14T00:11:06.728Z,15.67
2022-08-14T00:12:44.030Z,16.10
2022-08-14T00:14:29.753Z,15.30
2022-08-14T00:16:03.783Z,15.23
2022-08-14T00:17:47.347Z,15.20
2022-08-14T00:19:26.349Z,15.73
2022-08-14T00:21:00.939Z,15.80
2022-08-14T00:22:56.874Z,17.00
2022-08-14T00:24:29.121Z,16.87
2022-08-14T00:26:06.429Z,18.93
2022-08-14T00:27:40.764Z,17.10
2022-08-14T00:29:13.874Z,17.13
2022-08-14T00:30:48.373Z,16.67
2022-08-14T00:32:52.420Z,17.07
2022-08-14T00:34:37.045Z,17.27
2022-08-14T00:36:35.423Z,18.07
2022-08-14T00:38:02.431Z,17.47
2022-08-14T00:39:40.534Z,17.70
2022-08-14T00:41:14.980Z,17.47
2022-08-14T00:42:55.575Z,16.80
2022-08-14T00:44:32.679Z,17.10
2022-08-14T00:46:23.260Z,18.43
2022-08-14T00:48:05.098Z,18.00
2022-08-14T00:49:43.367Z,17.47
2022-08-14T00:51:16.825Z,17.00
2022-08-14T00:52:52.242Z,17.17
2022-08-14T00:54:25.431Z,16.77
2022-08-14T00:55:58.729Z,18.20
2022-08-14T00:57:34.357Z,19.27
2022-08-14T00:59:07.594Z,17.53
2022-08-14T01:00:47.261Z,16.87
2022-08-14T01:02:28.269Z,19.33
2022-08-14T01:04:05.516Z,17.73
2022-08-14T01:05:50.772Z,18.97
2022-08-14T01:07:29.774Z,17.77
2022-08-14T01:09:22.835Z,16.70
2022-08-14T01:10:55.954Z,15.93
2022-08-14T01:12:30.557Z,17.23
2022-08-14T01:14:25.488Z,16.47
2022-08-14T01:16:02.901Z,15.87
2022-08-14T01:17:55.108Z,16.07
2022-08-14T01:19:46.645Z,14.07
2022-08-14T01:21:24.863Z,14.83
2022-08-14T01:23:00.662Z,15.10
2022-08-14T01:24:34.630Z,15.10
2022-08-14T01:26:07.559Z,14.83
2022-08-14T01:27:53.508Z,15.83
2022-08-14T01:29:58.659Z,15.13
2022-08-14T01:31:27.604Z,14.90
2022-08-14T01:33:03.656Z,15.17
2022-08-14T01:35:17.700Z,14.60
2022-08-14T01:36:36.821Z,14.70
2022-08-14T01:38:11.163Z,14.57
2022-08-14T01:39:45.312Z,15.93
2022-08-14T01:41:23.078Z,15.50
2022-08-14T01:43:03.576Z,14.63
2022-08-14T01:44:38.857Z,14.53
2022-08-14T01:46:24.426Z,16.00
2022-08-14T01:48:03.648Z,13.63
2022-08-14T01:49:45.740Z,15.47
2022-08-14T01:51:23.977Z,14.83
2022-08-14T01:53:00.442Z,15.80
2022-08-14T01:54:38.292Z,15.30
2022-08-14T01:56:18.344Z,16.67
2022-08-14T01:58:18.112Z,15.93
2022-08-14T01:59:45.604Z,14.73
2022-08-14T02:01:19.928Z,13.87
2022-08-14T02:02:58.329Z,15.00
2022-08-14T02:04:54.953Z,15.67
2022-08-14T02:06:32.206Z,16.97
2022-08-14T02:08:09.962Z,14.83
2022-08-14T02:09:44.020Z,15.40
2022-08-14T02:11:25.907Z,16.30
2022-08-14T02:12:59.630Z,16.07
2022-08-14T02:14:33.115Z,15.03
2022-08-14T02:16:21.996Z,14.47
2022-08-14T02:17:55.834Z,14.50
2022-08-14T02:19:31.636Z,14.83
2022-08-14T02:21:04.923Z,15.93
2022-08-14T02:22:43.851Z,14.37
2022-08-14T02:24:39.229Z,15.33
2022-08-14T02:26:24.582Z,15.97
2022-08-14T02:28:22.754Z,14.87
2022-08-14T02:29:59.946Z,15.03
2022-08-14T02:31:43.501Z,15.30
2022-08-14T02:33:16.369Z,14.90
2022-08-14T02:34:49.514Z,15.27
2022-08-14T02:37:05.323Z,16.77
2022-08-14T02:38:29.554Z,18.63
2022-08-14T02:40:06.079Z,17.50
2022-08-14T02:41:52.760Z,18.57
2022-08-14T02:43:36.690Z,16.67
2022-08-14T02:45:11.682Z,16.77
2022-08-14T02:46:44.770Z,16.47
2022-08-14T02:49:04.240Z,16.17
2022-08-14T02:50:16.852Z,16.00
2022-08-14T02:51:50.715Z,16.37
2022-08-14T02:53:24.713Z,16.30
2022-08-14T02:54:59.629Z,16.83
2022-08-14T02:57:15.431Z,17.27
2022-08-14T02:58:31.983Z,16.93
2022-08-14T03:00:06.716Z,17.03
2022-08-14T03:01:43.331Z,16.67
2022-08-14T03:03:23.968Z,16.00
2022-08-14T03:04:57.681Z,16.00
2022-08-14T03:06:35.238Z,15.37
2022-08-14T03:08:31.884Z,15.87
2022-08-14T03:10:25.508Z,15.97
2022-08-14T03:12:04.992Z,16.53
2022-08-14T03:13:39.862Z,15.63
2022-08-14T03:15:16.611Z,15.60
2022-08-14T03:16:52.372Z,15.90
2022-08-14T03:18:32.039Z,15.67
2022-08-14T03:20:07.344Z,15.47
2022-08-14T03:21:45.241Z,16.70
2022-08-14T03:23:18.651Z,16.27
2022-08-14T03:24:51.012Z,16.40
2022-08-14T03:26:29.815Z,15.60
2022-08-14T03:28:07.108Z,16.23
2022-08-14T03:29:40.824Z,16.53
2022-08-14T03:31:15.054Z,16.43
2022-08-14T03:32:47.194Z,16.80
2022-08-14T03:34:24.619Z,16.40
2022-08-14T03:37:28.907Z,16.57
2022-08-14T03:39:13.382Z,15.60
2022-08-14T03:40:11.253Z,16.80
2022-08-14T03:41:44.782Z,14.93
2022-08-14T03:43:19.251Z,15.67
2022-08-14T03:45:27.429Z,16.20
2022-08-14T03:46:54.410Z,15.80
2022-08-14T03:48:31.386Z,15.90
2022-08-14T03:50:14.011Z,15.80
2022-08-14T03:51:57.697Z,15.60
2022-08-14T03:53:34.226Z,15.70
2022-08-14T03:55:09.210Z,15.90
2022-08-14T03:56:45.007Z,16.43
2022-08-14T03:58:23.775Z,16.40
2022-08-14T04:00:43.370Z,16.10
2022-08-14T04:02:32.986Z,15.70
2022-08-14T04:04:05.463Z,15.53
2022-08-14T04:05:42.807Z,15.00
2022-08-14T04:07:17.437Z,14.80
2022-08-14T04:08:52.335Z,15.60
2022-08-14T04:10:31.491Z,15.03
2022-08-14T04:12:06.114Z,15.23
2022-08-14T04:13:43.547Z,14.83
2022-08-14T04:15:21.231Z,14.40
2022-08-14T04:16:56.728Z,14.73
2022-08-14T04:18:30.522Z,14.63
2022-08-14T04:20:07.415Z,15.00
2022-08-14T04:22:03.724Z,14.73
2022-08-14T04:23:36.880Z,15.47
2022-08-14T04:25:10.884Z,15.67
2022-08-14T04:26:44.396Z,15.50
2022-08-14T04:29:08.112Z,14.63
2022-08-14T04:30:13.259Z,14.77
2022-08-14T04:33:02.480Z,13.90
2022-08-14T04:34:01.540Z,14.23
2022-08-14T04:35:56.387Z,13.77
2022-08-14T04:37:45.601Z,13.67
2022-08-14T04:39:36.006Z,14.37
2022-08-14T04:41:37.281Z,13.33
2022-08-14T04:43:39.214Z,13.63
2022-08-14T04:45:15.202Z,14.57
2022-08-14T04:47:02.684Z,15.27
2022-08-14T04:48:40.999Z,15.90
2022-08-14T04:50:15.748Z,16.33
2022-08-14T04:51:55.831Z,15.50
2022-08-14T04:53:34.921Z,15.80
2022-08-14T04:55:11.055Z,15.30
2022-08-14T04:56:44.216Z,16.13
2022-08-14T04:58:21.939Z,15.80
2022-08-14T05:00:07.292Z,15.47
2022-08-14T05:01:56.345Z,15.23
2022-08-14T05:03:32.197Z,15.03
2022-08-14T05:05:05.946Z,15.43
2022-08-14T05:06:39.724Z,15.30
2022-08-14T05:08:32.292Z,14.90
2022-08-14T05:10:12.996Z,14.50
2022-08-14T05:11:47.524Z,15.00
2022-08-14T05:13:21.254Z,15.23
2022-08-14T05:14:58.003Z,15.20
2022-08-14T05:16:31.098Z,14.97
2022-08-14T05:18:17.409Z,14.77
2022-08-14T05:21:56.520Z,15.00
2022-08-14T05:22:17.571Z,14.07
2022-08-14T05:23:54.567Z,13.40
2022-08-14T05:25:31.001Z,13.80
2022-08-14T05:27:07.073Z,13.90
2022-08-14T05:28:44.382Z,14.17
2022-08-14T05:30:20.021Z,14.00
2022-08-14T05:31:57.430Z,14.40
2022-08-14T05:33:36.393Z,13.50
2022-08-14T05:35:11.502Z,14.03
2022-08-14T05:36:50.648Z,14.67
2022-08-14T05:38:37.434Z,14.10
2022-08-14T05:40:11.272Z,14.47
2022-08-14T05:41:52.535Z,13.93
2022-08-14T05:43:40.968Z,14.50
2022-08-14T05:45:17.185Z,14.97
2022-08-14T05:46:50.527Z,14.03
2022-08-14T05:48:33.424Z,12.60
2022-08-14T05:50:17.394Z,12.97
2022-08-14T05:51:52.197Z,12.37
2022-08-14T05:53:27.257Z,12.43
2022-08-14T05:54:59.513Z,12.60
2022-08-14T05:56:32.676Z,12.50
2022-08-14T05:58:10.139Z,12.27
2022-08-14T05:59:43.751Z,10.83
2022-08-14T06:01:17.059Z,12.93
2022-08-14T06:02:49.408Z,12.70
2022-08-14T06:04:23.130Z,11.80
2022-08-14T06:05:59.409Z,12.43
2022-08-14T06:07:35.341Z,13.23
2022-08-14T06:09:09.842Z,12.70
2022-08-14T06:10:42.324Z,11.77
2022-08-14T06:12:31.334Z,12.70
2022-08-14T06:14:20.667Z,12.93
2022-08-14T06:15:54.940Z,11.30
2022-08-14T06:17:27.656Z,11.20
2022-08-14T06:19:18.277Z,11.43
2022-08-14T06:20:52.011Z,11.93
2022-08-14T06:22:31.736Z,11.33
2022-08-14T06:24:10.597Z,11.17
2022-08-14T06:25:53.344Z,11.20
2022-08-14T06:27:26.637Z,11.90
2022-08-14T06:29:07.115Z,10.33
2022-08-14T06:30:47.176Z,10.67
2022-08-14T06:32:37.809Z,11.07
2022-08-14T06:35:11.123Z,9.77
2022-08-14T06:36:07.203Z,11.03
2022-08-14T06:37:47.930Z,10.60
2022-08-14T06:39:37.411Z,11.17
2022-08-14T06:41:11.167Z,10.60
2022-08-14T06:42:44.659Z,10.20
2022-08-14T06:44:22.540Z,10.80
2022-08-14T06:46:06.142Z,10.00
2022-08-14T06:47:58.883Z,11.07
2022-08-14T06:49:43.272Z,10.40
2022-08-14T06:51:18.323Z,10.70
2022-08-14T06:52:53.828Z,11.03
2022-08-14T06:54:31.261Z,10.70
2022-08-14T06:56:05.443Z,10.97
2022-08-14T06:57:39.021Z,10.30
2022-08-14T06:59:16.687Z,9.70
2022-08-14T07:01:10.813Z,10.43
2022-08-14T07:03:03.271Z,10.10
2022-08-14T07:05:06.232Z,10.32
2022-08-14T07:06:46.497Z,10.10
2022-08-14T07:08:26.400Z,9.87
2022-08-14T07:10:05.524Z,10.33
2022-08-14T07:11:39.070Z,10.47
2022-08-14T07:13:15.236Z,10.57
2022-08-14T07:14:47.340Z,10.43
2022-08-14T07:16:20.585Z,10.57
2022-08-14T07:18:01.069Z,9.90
2022-08-14T07:19:34.217Z,11.03
2022-08-14T07:21:10.087Z,10.47
2022-08-14T07:22:49.807Z,10.67
2022-08-14T07:24:31.499Z,10.80
2022-08-14T07:26:06.467Z,11.73
2022-08-14T07:27:43.793Z,11.70
2022-08-14T07:29:17.684Z,11.13
2022-08-14T07:30:52.372Z,11.43
2022-08-14T07:32:34.024Z,11.00
2022-08-14T07:34:07.657Z,10.97
2022-08-14T07:35:57.591Z,10.50
2022-08-14T07:37:31.924Z,11.00
2022-08-14T07:39:12.167Z,10.13
2022-08-14T07:40:47.285Z,10.50
2022-08-14T07:42:26.682Z,9.93
2022-08-14T07:44:22.465Z,10.27
2022-08-14T07:45:53.940Z,10.80
2022-08-14T07:47:27.635Z,10.20
2022-08-14T07:49:01.082Z,10.60
2022-08-14T07:50:37.215Z,10.40
2022-08-14T07:52:10.595Z,10.70
2022-08-14T07:53:46.072Z,10.33
2022-08-14T07:55:21.242Z,9.47
2022-08-14T07:56:56.767Z,11.10
2022-08-14T07:58:34.557Z,10.47
2022-08-14T08:00:29.939Z,9.63
2022-08-14T08:02:05.688Z,9.47
2022-08-14T08:03:40.395Z,9.47
2022-08-14T08:05:22.379Z,9.50
2022-08-14T08:06:56.181Z,9.40
2022-08-14T08:08:31.498Z,9.30
2022-08-14T08:10:46.672Z,9.43
2022-08-14T08:12:29.472Z,9.50
2022-08-14T08:14:10.651Z,8.87
2022-08-14T08:15:53.800Z,9.37
2022-08-14T08:17:28.290Z,8.77
2022-08-14T08:19:12.573Z,8.53
2022-08-14T08:20:52.151Z,9.13
2022-08-14T08:22:27.380Z,9.77
2022-08-14T08:24:00.533Z,9.70
2022-08-14T08:25:39.682Z,9.57
2022-08-14T08:27:16.802Z,10.17
2022-08-14T08:28:58.957Z,10.07
2022-08-14T08:30:33.780Z,9.10
2022-08-14T08:32:07.107Z,9.70
2022-08-14T08:33:43.490Z,9.60
2022-08-14T08:35:21.267Z,9.60
2022-08-14T08:36:54.372Z,11.00
2022-08-14T08:39:14.804Z,9.90
2022-08-14T08:40:31.009Z,9.70
2022-08-14T08:42:05.126Z,10.10
2022-08-14T08:43:38.941Z,9.83
2022-08-14T08:45:15.557Z,9.90
2022-08-14T08:46:58.646Z,9.70
2022-08-14T08:48:52.061Z,9.63
2022-08-14T08:52:04.449Z,9.63
2022-08-14T08:53:38.545Z,9.80
2022-08-14T08:55:15.043Z,9.43
2022-08-14T08:56:52.348Z,8.60
2022-08-14T08:58:26.007Z,9.30
2022-08-14T09:00:02.254Z,9.63
2022-08-14T09:01:36.914Z,9.47
2022-08-14T09:03:11.717Z,8.50
2022-08-14T09:04:53.500Z,9.63
2022-08-14T09:06:59.951Z,9.17
2022-08-14T09:08:26.589Z,9.17
2022-08-14T09:10:05.802Z,10.03
2022-08-14T09:11:41.168Z,9.57
2022-08-14T09:13:15.230Z,8.93
2022-08-14T09:14:48.975Z,9.27
2022-08-14T09:16:25.319Z,9.20
2022-08-14T09:18:01.385Z,8.73
2022-08-14T09:19:34.587Z,8.47
2022-08-14T09:21:09.301Z,8.50
2022-08-14T09:22:48.111Z,7.43
2022-08-14T09:24:29.290Z,7.50
2022-08-14T09:26:21.077Z,7.40
2022-08-14T09:27:54.731Z,6.93
2022-08-14T09:29:29.162Z,6.80
2022-08-14T09:31:07.318Z,7.18
2022-08-14T09:33:10.924Z,6.47
2022-08-14T09:34:58.911Z,7.40
2022-08-14T09:36:45.406Z,7.32
2022-08-14T09:38:28.162Z,6.60
2022-08-14T09:40:09.991Z,7.03
2022-08-14T09:42:21.718Z,7.15
2022-08-14T09:44:00.212Z,7.10
2022-08-14T09:45:52.838Z,6.57
2022-08-14T09:47:42.230Z,6.45
2022-08-14T09:49:16.845Z,6.68
2022-08-14T09:50:52.239Z,5.90
2022-08-14T09:52:34.220Z,5.53
2022-08-14T09:54:23.535Z,6.07
2022-08-14T09:56:00.156Z,6.70
2022-08-14T09:57:33.519Z,6.45
2022-08-14T09:59:15.210Z,6.15
2022-08-14T10:00:50.932Z,6.75
2022-08-14T10:02:28.604Z,6.18
2022-08-14T10:04:01.747Z,6.03
2022-08-14T10:05:39.480Z,6.18
2022-08-14T10:07:12.764Z,6.13
2022-08-14T10:08:51.137Z,6.20
2022-08-14T10:10:34.682Z,6.40
2022-08-14T10:12:18.947Z,6.32
2022-08-14T10:14:17.873Z,5.97
2022-08-14T10:16:00.512Z,5.80
2022-08-14T10:17:38.829Z,6.38
2022-08-14T10:19:15.866Z,5.90
2022-08-14T10:20:57.586Z,5.88
2022-08-14T10:23:13.253Z,6.47
2022-08-14T10:24:36.068Z,6.20
2022-08-14T10:26:11.896Z,6.30
2022-08-14T10:27:58.781Z,5.90
2022-08-14T10:29:34.363Z,5.85
2022-08-14T10:31:17.127Z,6.10
2022-08-14T10:32:55.628Z,5.65
2022-08-14T10:34:36.514Z,5.97
2022-08-14T10:36:26.735Z,5.85
2022-08-14T10:38:07.223Z,6.07
2022-08-14T10:39:51.203Z,5.95
2022-08-14T10:41:46.451Z,6.45
2022-08-14T10:43:26.234Z,6.43
2022-08-14T10:44:59.784Z,6.60
2022-08-14T10:47:41.250Z,6.63
2022-08-14T10:48:36.854Z,6.55
2022-08-14T10:50:15.029Z,6.63
2022-08-14T10:52:06.069Z,6.05
2022-08-14T10:53:40.081Z,5.50
2022-08-14T10:55:16.652Z,5.93
2022-08-14T10:56:51.736Z,5.78
2022-08-14T10:58:34.126Z,5.65
2022-08-14T11:00:14.786Z,5.22
2022-08-14T11:01:54.109Z,5.75
2022-08-14T11:03:56.165Z,5.60
2022-08-14T11:05:41.840Z,6.15
2022-08-14T11:07:21.191Z,5.80
2022-08-14T11:08:55.211Z,6.13
2022-08-14T11:10:43.176Z,5.70
2022-08-14T11:12:34.134Z,5.37
2022-08-14T11:14:09.796Z,5.75
2022-08-14T11:15:42.994Z,5.60
2022-08-14T11:17:18.143Z,4.80
2022-08-14T11:18:59.691Z,5.25
2022-08-14T11:20:33.025Z,5.10
2022-08-14T11:22:06.772Z,4.90
2022-08-14T11:23:53.836Z,5.00
2022-08-14T11:25:41.348Z,5.22
2022-08-14T11:27:20.088Z,5.13
2022-08-14T11:28:54.009Z,5.30
2022-08-14T11:30:50.673Z,5.10
2022-08-14T11:32:23.109Z,5.50
2022-08-14T11:33:59.740Z,5.50
2022-08-14T11:35:36.977Z,5.50
2022-08-14T11:37:36.412Z,5.50
2022-08-14T11:39:23.177Z,5.70
2022-08-14T11:41:08.849Z,5.60
2022-08-14T11:42:57.320Z,5.87
2022-08-14T11:44:45.656Z,5.70
2022-08-14T11:46:30.783Z,6.40
2022-08-14T11:49:03.374Z,5.90
2022-08-14T11:50:33.636Z,5.90
2022-08-14T11:52:12.760Z,6.03
2022-08-14T11:53:52.276Z,6.30
2022-08-14T11:55:28.035Z,6.27
2022-08-14T11:57:01.418Z,6.13
2022-08-14T11:58:36.195Z,5.87
2022-08-14T12:00:14.734Z,6.40
2022-08-14T12:01:52.764Z,5.43
2022-08-14T12:03:46.568Z,5.57
2022-08-14T12:05:33.586Z,5.40
2022-08-14T12:07:09.111Z,5.70
2022-08-14T12:08:43.009Z,6.03
2022-08-14T12:10:26.163Z,6.00
2022-08-14T12:12:35.604Z,5.50
2022-08-14T12:14:13.326Z,6.40
2022-08-14T12:16:06.368Z,7.00
2022-08-14T12:17:50.543Z,6.30
2022-08-14T12:19:25.399Z,6.70
2022-08-14T12:21:00.177Z,6.30
2022-08-14T12:22:35.525Z,5.97
2022-08-14T12:24:36.722Z,6.37
2022-08-14T12:26:32.003Z,6.03
2022-08-14T12:28:05.454Z,6.13
2022-08-14T12:29:42.815Z,6.17
2022-08-14T12:31:20.710Z,5.77
2022-08-14T12:32:56.222Z,6.40
2022-08-14T12:34:34.515Z,6.10
2022-08-14T12:36:20.957Z,6.50
2022-08-14T12:37:54.191Z,6.10
2022-08-14T12:39:27.342Z,6.47
2022-08-14T12:41:00.566Z,6.00
2022-08-14T12:42:38.731Z,5.83
2022-08-14T12:44:16.811Z,5.80
2022-08-14T12:45:55.568Z,6.30
2022-08-14T12:47:31.362Z,6.13
2022-08-14T12:49:11.362Z,6.10
2022-08-14T12:50:49.790Z,6.43
2022-08-14T12:52:41.560Z,6.43
2022-08-14T12:54:27.791Z,6.07
2022-08-14T12:56:22.388Z,5.80
2022-08-14T12:58:02.393Z,6.00
2022-08-14T13:00:22.768Z,6.37
2022-08-14T13:02:03.125Z,6.50
2022-08-14T13:03:43.785Z,5.77
2022-08-14T13:05:18.669Z,6.10
2022-08-14T13:06:52.884Z,6.13
2022-08-14T13:08:33.270Z,6.43
2022-08-14T13:10:47.568Z,6.47
2022-08-14T13:12:32.289Z,6.40
2022-08-14T13:14:00.697Z,5.90
2022-08-14T13:15:35.188Z,5.90
2022-08-14T13:17:10.889Z,6.03
2022-08-14T13:18:46.865Z,6.13
2022-08-14T13:20:24.155Z,6.10
2022-08-14T13:22:09.451Z,6.15
2022-08-14T13:23:45.326Z,6.15
2022-08-14T13:25:20.525Z,5.43
2022-08-14T13:26:59.205Z,5.80
2022-08-14T13:28:41.272Z,5.88
2022-08-14T13:30:28.633Z,5.90
2022-08-14T13:32:06.703Z,6.03
2022-08-14T13:33:41.265Z,5.65
2022-08-14T13:35:17.562Z,6.05
2022-08-14T13:36:59.297Z,5.55
2022-08-14T13:38:37.912Z,5.60
2022-08-14T13:40:13.543Z,5.60
2022-08-14T13:41:47.705Z,6.18
2022-08-14T13:43:31.516Z,5.55
2022-08-14T13:45:11.635Z,5.57
2022-08-14T13:46:46.293Z,6.22
2022-08-14T13:48:33.150Z,5.32
2022-08-14T13:50:12.082Z,5.63
2022-08-14T13:51:50.468Z,6.03
2022-08-14T13:53:29.243Z,5.72
2022-08-14T13:55:08.144Z,5.72
2022-08-14T13:56:47.496Z,6.03
2022-08-14T13:58:30.268Z,5.57
2022-08-14T14:00:12.843Z,5.70
2022-08-14T14:01:47.144Z,5.63
2022-08-14T14:03:30.467Z,6.47
2022-08-14T14:05:07.431Z,5.90
2022-08-14T14:06:41.595Z,5.80
2022-08-14T14:08:19.076Z,5.53
2022-08-14T14:10:13.394Z,5.97
2022-08-14T14:11:47.874Z,6.15
2022-08-14T14:13:27.409Z,6.05
2022-08-14T14:15:06.725Z,5.88
2022-08-14T14:16:47.017Z,5.72
2022-08-14T14:18:33.786Z,5.97
2022-08-14T14:20:15.046Z,5.70
2022-08-14T14:22:06.545Z,6.30
2022-08-14T14:23:44.868Z,5.78
2022-08-14T14:25:22.141Z,6.63
2022-08-14T14:27:09.640Z,6.25
2022-08-14T14:28:57.085Z,6.13
2022-08-14T14:30:52.013Z,6.07
2022-08-14T14:32:31.969Z,6.32
2022-08-14T14:34:07.535Z,6.95
2022-08-14T14:35:54.656Z,6.30
2022-08-14T14:37:28.865Z,6.80
2022-08-14T14:39:06.236Z,6.82
2022-08-14T14:40:53.667Z,6.55
2022-08-14T14:42:35.535Z,7.05
2022-08-14T14:44:15.468Z,6.32
2022-08-14T14:45:52.830Z,6.57
2022-08-14T14:47:27.065Z,6.90
2022-08-14T14:49:07.714Z,6.57
2022-08-14T14:50:41.279Z,6.55
2022-08-14T14:52:23.472Z,6.28
2022-08-14T14:54:02.232Z,6.75
2022-08-14T14:55:43.229Z,6.57
2022-08-14T14:57:35.034Z,6.82
2022-08-14T14:59:10.284Z,6.68
2022-08-14T15:00:45.128Z,7.40
2022-08-14T15:02:34.739Z,7.67
2022-08-14T15:04:20.105Z,7.03
2022-08-14T15:05:54.431Z,7.20
2022-08-14T15:07:29.805Z,7.27
2022-08-14T15:09:04.679Z,7.30
2022-08-14T15:10:40.004Z,7.60
2022-08-14T15:12:34.619Z,6.47
2022-08-14T15:14:55.460Z,7.23
2022-08-14T15:15:59.851Z,6.73
2022-08-14T15:17:41.375Z,6.83
2022-08-14T15:19:15.078Z,6.87
2022-08-14T15:20:48.521Z,6.93
2022-08-14T15:22:22.726Z,6.70
2022-08-14T15:24:00.260Z,6.80
2022-08-14T15:25:33.630Z,7.23
2022-08-14T15:27:06.781Z,6.23
2022-08-14T15:28:41.779Z,6.53
2022-08-14T15:30:23.817Z,6.40
2022-08-14T15:31:57.643Z,6.87
2022-08-14T15:34:33.183Z,6.90
2022-08-14T15:35:44.886Z,6.37
2022-08-14T15:37:19.180Z,6.70
2022-08-14T15:38:52.310Z,6.60
2022-08-14T15:40:27.017Z,6.10
2022-08-14T15:42:01.942Z,6.67
2022-08-14T15:43:36.309Z,6.37
2022-08-14T15:45:17.070Z,7.00
2022-08-14T15:46:50.424Z,6.83
2022-08-14T15:48:25.945Z,6.30
2022-08-14T15:50:08.650Z,6.33
2022-08-14T15:51:43.567Z,6.30
2022-08-14T15:53:15.901Z,6.10
2022-08-14T15:54:50.567Z,5.77
2022-08-14T15:56:33.052Z,6.50
2022-08-14T15:58:16.910Z,6.20
2022-08-14T16:00:11.573Z,6.30
2022-08-14T16:02:03.600Z,6.03
2022-08-14T16:03:40.991Z,6.40
2022-08-14T16:05:25.420Z,6.50
2022-08-14T16:06:58.893Z,6.77
2022-08-14T16:08:32.040Z,6.77
2022-08-14T16:10:28.936Z,6.20
2022-08-14T16:12:00.983Z,6.27
2022-08-14T16:13:41.792Z,6.03
2022-08-14T16:15:16.808Z,6.33
2022-08-14T16:17:00.540Z,6.60
2022-08-14T16:18:36.437Z,7.00
2022-08-14T16:20:10.791Z,6.97
2022-08-14T16:22:01.515Z,6.67
2022-08-14T16:23:40.879Z,6.67
2022-08-14T16:25:18.190Z,6.20
2022-08-14T16:26:53.439Z,6.57
2022-08-14T16:28:36.273Z,6.20
2022-08-14T16:30:24.665Z,7.17
2022-08-14T16:32:01.673Z,6.93
2022-08-14T16:33:58.850Z,7.43
2022-08-14T16:35:43.207Z,7.03
2022-08-14T16:37:23.274Z,6.20
2022-08-14T16:39:08.264Z,6.73
2022-08-14T16:40:45.131Z,6.90
2022-08-14T16:43:02.866Z,6.80
2022-08-14T16:44:23.204Z,6.53
2022-08-14T16:46:08.555Z,6.60
2022-08-14T16:47:41.658Z,7.27
2022-08-14T16:49:16.449Z,6.73
2022-08-14T16:50:51.008Z,6.93
2022-08-14T16:52:26.401Z,6.83
2022-08-14T16:54:34.175Z,6.17
2022-08-14T16:56:23.205Z,6.77
2022-08-14T16:57:59.102Z,7.03
2022-08-14T16:59:52.430Z,7.17
2022-08-14T17:01:28.322Z,7.13
2022-08-14T17:03:04.022Z,7.77
2022-08-14T17:04:41.063Z,6.97
2022-08-14T17:06:33.515Z,7.30
2022-08-14T17:08:33.474Z,7.50
2022-08-14T17:10:12.382Z,7.27
2022-08-14T17:11:54.458Z,7.13
2022-08-14T17:13:59.122Z,7.40
2022-08-14T17:15:25.755Z,6.77
2022-08-14T17:17:00.365Z,7.23
2022-08-14T17:18:41.507Z,7.50
2022-08-14T17:20:53.850Z,7.77
2022-08-14T17:22:11.772Z,7.37
2022-08-14T17:23:47.208Z,6.57
2022-08-14T17:25:22.669Z,7.23
2022-08-14T17:26:56.157Z,7.27
2022-08-14T17:28:51.690Z,7.23
2022-08-14T17:30:32.343Z,7.93
2022-08-14T17:32:22.010Z,7.40
2022-08-14T17:34:02.509Z,7.53
2022-08-14T17:37:35.538Z,7.30
2022-08-14T17:39:11.915Z,7.00
2022-08-14T17:41:05.312Z,7.67
2022-08-14T17:43:00.905Z,7.30
2022-08-14T17:44:45.005Z,7.10
2022-08-14T17:46:34.964Z,7.53
2022-08-14T17:49:15.821Z,7.53
2022-08-14T17:50:59.044Z,7.90
2022-08-14T17:52:17.525Z,8.30
2022-08-14T17:54:01.287Z,8.13
2022-08-14T17:56:01.838Z,7.47
2022-08-14T17:57:35.247Z,7.97
2022-08-14T17:59:17.594Z,7.67
2022-08-14T18:00:55.513Z,7.90
2022-08-14T18:02:31.807Z,7.93
2022-08-14T18:04:24.771Z,8.60
2022-08-14T18:06:08.322Z,8.37
2022-08-14T18:07:59.396Z,7.60
2022-08-14T18:09:56.224Z,7.60
2022-08-14T18:11:45.751Z,7.77
2022-08-14T18:13:51.370Z,8.40
2022-08-14T18:15:17.625Z,8.60
2022-08-14T18:16:55.088Z,8.30
2022-08-14T18:18:31.954Z,8.23
2022-08-14T18:21:23.552Z,8.50
2022-08-14T18:22:03.959Z,8.10
2022-08-14T18:23:42.128Z,8.60
2022-08-14T18:25:19.163Z,8.20
2022-08-14T18:27:02.207Z,8.30
2022-08-14T18:28:51.395Z,8.93
2022-08-14T18:30:33.624Z,8.53
2022-08-14T18:32:47.518Z,8.45
2022-08-14T18:34:50.762Z,8.87
2022-08-14T18:36:54.343Z,8.97
2022-08-14T18:38:55.293Z,9.27
2022-08-14T18:40:34.917Z,8.80
2022-08-14T18:42:45.381Z,8.83
2022-08-14T18:45:12.960Z,8.57
2022-08-14T18:47:23.705Z,8.73
2022-08-14T18:49:14.750Z,9.17
2022-08-14T18:50:52.327Z,9.40
2022-08-14T18:52:49.329Z,9.03
2022-08-14T18:54:32.968Z,9.60
2022-08-14T18:56:10.065Z,9.37
2022-08-14T18:58:26.527Z,9.60
2022-08-14T19:00:43.232Z,9.30
2022-08-14T19:02:44.444Z,9.50
2022-08-14T19:04:37.546Z,8.70
2022-08-14T19:06:16.731Z,10.03
2022-08-14T19:08:25.270Z,9.57
2022-08-14T19:10:00.618Z,9.53
2022-08-14T19:11:51.476Z,10.10
2022-08-14T19:13:48.219Z,10.60
2022-08-14T19:15:27.275Z,9.13
2022-08-14T19:17:00.454Z,9.53
2022-08-14T19:18:48.278Z,10.10
2022-08-14T19:20:22.351Z,9.40
2022-08-14T19:21:57.627Z,10.87
2022-08-14T19:23:43.054Z,10.10
2022-08-14T19:25:51.703Z,10.20
2022-08-14T19:27:26.385Z,10.40
2022-08-14T19:29:36.203Z,9.90
2022-08-14T19:31:42.265Z,10.00
2022-08-14T19:33:54.487Z,10.50
2022-08-14T19:35:55.829Z,10.20
2022-08-14T19:37:52.432Z,11.03
2022-08-14T19:39:49.144Z,11.60
2022-08-14T19:41:30.051Z,11.30
2022-08-14T19:43:06.488Z,10.80
2022-08-14T19:44:41.173Z,11.63
2022-08-14T19:46:39.419Z,10.80
2022-08-14T19:48:15.574Z,10.73
2022-08-14T19:50:08.219Z,10.33
2022-08-14T19:51:47.195Z,10.87
2022-08-14T19:53:22.057Z,10.80
2022-08-14T19:54:56.131Z,10.00
2022-08-14T19:56:34.643Z,11.10
2022-08-14T19:58:09.848Z,10.17
2022-08-14T19:59:58.035Z,10.20
2022-08-14T20:01:37.490Z,10.20
2022-08-14T20:03:15.109Z,10.70
2022-08-14T20:04:59.908Z,10.93
2022-08-14T20:06:43.280Z,10.70
2022-08-14T20:09:05.216Z,11.13
2022-08-14T20:11:08.059Z,11.60
2022-08-14T20:12:29.160Z,11.80
2022-08-14T20:14:20.332Z,12.60
2022-08-14T20:15:56.066Z,13.77
2022-08-14T20:17:29.608Z,12.77
2022-08-14T20:19:22.323Z,12.80
2022-08-14T20:20:57.736Z,12.40
2022-08-14T20:22:38.571Z,14.33
2022-08-14T20:24:30.941Z,12.53
2022-08-14T20:26:04.728Z,13.50
2022-08-14T20:27:45.469Z,12.70
2022-08-14T20:29:31.796Z,12.70
2022-08-14T20:31:17.943Z,12.10
2022-08-14T20:32:55.107Z,12.33
2022-08-14T20:34:39.766Z,12.93
2022-08-14T20:36:29.386Z,11.20
2022-08-14T20:38:29.476Z,12.27
2022-08-14T20:39:58.242Z,11.47
2022-08-14T20:41:33.655Z,10.77
2022-08-14T20:43:35.544Z,11.07
2022-08-14T20:45:20.045Z,11.37
2022-08-14T20:47:01.000Z,11.90
2022-08-14T20:48:52.924Z,12.30
2022-08-14T20:50:28.523Z,12.03
2022-08-14T20:52:18.626Z,11.67
2022-08-14T20:53:57.588Z,11.90
2022-08-14T20:55:32.830Z,10.60
2022-08-14T20:57:09.629Z,10.87
2022-08-14T20:58:44.352Z,10.97
2022-08-14T21:00:52.171Z,11.37
2022-08-14T21:02:49.829Z,11.13
2022-08-14T21:04:28.703Z,10.97
2022-08-14T21:06:19.666Z,10.60
2022-08-14T21:07:57.197Z,11.47
2022-08-14T21:10:06.070Z,11.10
2022-08-14T21:11:38.783Z,11.10
2022-08-14T21:13:27.916Z,11.17
2022-08-14T21:15:11.702Z,10.93
2022-08-14T21:16:58.218Z,10.57
2022-08-14T21:18:47.276Z,10.80
2022-08-14T21:20:25.403Z,11.80
2022-08-14T21:22:01.836Z,11.03
2022-08-14T21:23:54.281Z,11.53
2022-08-14T21:25:28.996Z,11.00
2022-08-14T21:27:12.430Z,11.10
2022-08-14T21:28:53.044Z,10.30
2022-08-14T21:30:51.498Z,10.63
2022-08-14T21:32:33.820Z,10.70
2022-08-14T21:34:30.947Z,10.40
2022-08-14T21:36:07.588Z,10.70
2022-08-14T21:37:46.107Z,11.17
2022-08-14T21:39:22.484Z,11.67
2022-08-14T21:40:57.300Z,11.20
2022-08-14T21:42:32.399Z,11.60
2022-08-14T21:44:17.582Z,11.73
2022-08-14T21:45:56.156Z,11.67
2022-08-14T21:47:31.330Z,12.23
2022-08-14T21:49:11.754Z,11.40
2022-08-14T21:51:01.065Z,11.37
2022-08-14T21:52:52.011Z,11.37
2022-08-14T21:54:50.049Z,10.47
2022-08-14T21:56:38.745Z,12.00
2022-08-14T21:58:52.921Z,11.20
2022-08-14T22:00:34.679Z,11.23
2022-08-14T22:02:08.045Z,11.57
2022-08-14T22:04:05.558Z,11.57
2022-08-14T22:05:57.014Z,11.73
2022-08-14T22:07:30.971Z,11.37
2022-08-14T22:09:08.337Z,11.40
2022-08-14T22:10:44.920Z,12.47
2022-08-14T22:12:57.966Z,12.10
2022-08-14T22:14:25.370Z,11.70
2022-08-14T22:16:02.143Z,12.07
2022-08-14T22:17:35.657Z,12.57
2022-08-14T22:19:13.758Z,12.37